Terminal Aerodrome Forecast
Issued by NWS Tuscon, AZ

Home | Current Version | Previous Version | Text Only | Print | Product List | Glossary On
Versions: 1 2 3 4 5 6 7 8 9 10 11 12 13 14 15 16 17 18 19 20
000
FTUS45 KTWC 031129
TAFTUS
TAF
KTUS 031129Z 0312/0412 11009KT P6SM SCT120 BKN200
     FM031700 16007KT P6SM SCT080 BKN120
     FM032100 19010KT P6SM VCTS BKN070CB BKN110
     FM040100 17008KT P6SM VCSH SCT070 BKN110
     FM040700 14007KT P6SM SCT120 BKN200=

USA.gov is the U.S. government's official web portal to all federal, state and local government web resources and services.